sensor_id;sensor_type;location;lat;lon;timestamp;temperature;humidity
19060;DHT22;9663;48.996;8.334;2023-07-20T00:01:26;23.40;34.70
19060;DHT22;9663;48.996;8.334;2023-07-20T00:03:52;23.30;34.80
19060;DHT22;9663;48.996;8.334;2023-07-20T00:06:22;23.30;34.90
19060;DHT22;9663;48.996;8.334;2023-07-20T00:08:51;23.20;35.00
19060;DHT22;9663;48.996;8.334;2023-07-20T00:11:17;23.10;35.00
19060;DHT22;9663;48.996;8.334;2023-07-20T00:13:43;23.10;35.10
19060;DHT22;9663;48.996;8.334;2023-07-20T00:16:08;23.00;35.30
19060;DHT22;9663;48.996;8.334;2023-07-20T00:18:34;22.90;35.30
19060;DHT22;9663;48.996;8.334;2023-07-20T00:21:00;22.80;35.40
19060;DHT22;9663;48.996;8.334;2023-07-20T00:23:26;22.80;35.50
19060;DHT22;9663;48.996;8.334;2023-07-20T00:25:52;22.70;35.60
19060;DHT22;9663;48.996;8.334;2023-07-20T00:28:17;22.70;35.70
19060;DHT22;9663;48.996;8.334;2023-07-20T00:30:43;22.50;35.80
19060;DHT22;9663;48.996;8.334;2023-07-20T00:33:11;22.50;36.10
19060;DHT22;9663;48.996;8.334;2023-07-20T00:35:38;22.40;36.20
19060;DHT22;9663;48.996;8.334;2023-07-20T00:38:04;22.30;36.30
19060;DHT22;9663;48.996;8.334;2023-07-20T00:40:37;22.30;36.40
19060;DHT22;9663;48.996;8.334;2023-07-20T00:43:04;22.20;37.00
19060;DHT22;9663;48.996;8.334;2023-07-20T00:45:31;22.10;36.60
19060;DHT22;9663;48.996;8.334;2023-07-20T00:47:58;22.00;36.80
19060;DHT22;9663;48.996;8.334;2023-07-20T00:50:28;22.00;36.90
19060;DHT22;9663;48.996;8.334;2023-07-20T00:52:57;21.90;37.30
19060;DHT22;9663;48.996;8.334;2023-07-20T00:55:24;21.80;37.40
19060;DHT22;9663;48.996;8.334;2023-07-20T00:57:51;21.80;37.30
19060;DHT22;9663;48.996;8.334;2023-07-20T01:00:17;21.70;37.50
19060;DHT22;9663;48.996;8.334;2023-07-20T01:02:43;21.70;37.50
19060;DHT22;9663;48.996;8.334;2023-07-20T01:05:09;21.60;37.60
19060;DHT22;9663;48.996;8.334;2023-07-20T01:07:59;21.60;37.80
19060;DHT22;9663;48.996;8.334;2023-07-20T01:11:01;21.60;38.60
19060;DHT22;9663;48.996;8.334;2023-07-20T01:13:36;21.50;38.90
19060;DHT22;9663;48.996;8.334;2023-07-20T01:16:03;21.50;38.20
19060;DHT22;9663;48.996;8.334;2023-07-20T01:18:29;21.40;38.20
19060;DHT22;9663;48.996;8.334;2023-07-20T01:21:19;21.40;38.40
19060;DHT22;9663;48.996;8.334;2023-07-20T01:24:13;21.30;39.40
19060;DHT22;9663;48.996;8.334;2023-07-20T01:27:41;21.30;39.50
19060;DHT22;9663;48.996;8.334;2023-07-20T01:30:16;21.30;39.90
19060;DHT22;9663;48.996;8.334;2023-07-20T01:33:05;21.20;39.20
19060;DHT22;9663;48.996;8.334;2023-07-20T01:35:34;21.20;39.20
19060;DHT22;9663;48.996;8.334;2023-07-20T01:38:02;21.10;39.30
19060;DHT22;9663;48.996;8.334;2023-07-20T01:40:29;21.10;39.40
19060;DHT22;9663;48.996;8.334;2023-07-20T01:42:55;21.10;39.50
19060;DHT22;9663;48.996;8.334;2023-07-20T01:45:21;21.00;39.70
19060;DHT22;9663;48.996;8.334;2023-07-20T01:47:46;21.00;39.80
19060;DHT22;9663;48.996;8.334;2023-07-20T01:50:12;21.00;39.90
19060;DHT22;9663;48.996;8.334;2023-07-20T01:52:38;21.00;40.00
19060;DHT22;9663;48.996;8.334;2023-07-20T01:55:04;20.90;40.00
19060;DHT22;9663;48.996;8.334;2023-07-20T01:57:30;20.80;40.10
19060;DHT22;9663;48.996;8.334;2023-07-20T01:59:55;20.80;40.20
19060;DHT22;9663;48.996;8.334;2023-07-20T02:02:25;20.80;40.30
19060;DHT22;9663;48.996;8.334;2023-07-20T02:04:52;20.80;40.60
19060;DHT22;9663;48.996;8.334;2023-07-20T02:07:17;20.70;40.50
19060;DHT22;9663;48.996;8.334;2023-07-20T02:09:43;20.70;40.60
19060;DHT22;9663;48.996;8.334;2023-07-20T02:12:09;20.70;40.70
19060;DHT22;9663;48.996;8.334;2023-07-20T02:14:34;20.70;40.70
19060;DHT22;9663;48.996;8.334;2023-07-20T02:17:00;20.70;40.80
19060;DHT22;9663;48.996;8.334;2023-07-20T02:19:26;20.60;40.90
19060;DHT22;9663;48.996;8.334;2023-07-20T02:21:52;20.70;41.00
19060;DHT22;9663;48.996;8.334;2023-07-20T02:24:18;20.60;41.00
19060;DHT22;9663;48.996;8.334;2023-07-20T02:26:44;20.60;41.10
19060;DHT22;9663;48.996;8.334;2023-07-20T02:29:10;20.60;41.20
19060;DHT22;9663;48.996;8.334;2023-07-20T02:31:40;20.60;41.30
19060;DHT22;9663;48.996;8.334;2023-07-20T02:34:06;20.60;41.60
19060;DHT22;9663;48.996;8.334;2023-07-20T02:36:32;20.60;41.40
19060;DHT22;9663;48.996;8.334;2023-07-20T02:38:58;20.50;41.50
19060;DHT22;9663;48.996;8.334;2023-07-20T02:41:24;20.50;41.60
19060;DHT22;9663;48.996;8.334;2023-07-20T02:43:50;20.50;41.70
19060;DHT22;9663;48.996;8.334;2023-07-20T02:46:16;20.50;41.80
19060;DHT22;9663;48.996;8.334;2023-07-20T02:48:41;20.40;41.90
19060;DHT22;9663;48.996;8.334;2023-07-20T02:51:07;20.40;42.10
19060;DHT22;9663;48.996;8.334;2023-07-20T02:53:33;20.40;42.10
19060;DHT22;9663;48.996;8.334;2023-07-20T02:55:59;20.40;42.20
19060;DHT22;9663;48.996;8.334;2023-07-20T02:58:24;20.30;42.20
19060;DHT22;9663;48.996;8.334;2023-07-20T03:00:50;20.30;42.40
19060;DHT22;9663;48.996;8.334;2023-07-20T03:03:15;20.30;42.50
19060;DHT22;9663;48.996;8.334;2023-07-20T03:05:41;20.20;42.50
19060;DHT22;9663;48.996;8.334;2023-07-20T03:08:08;20.20;42.60
19060;DHT22;9663;48.996;8.334;2023-07-20T03:10:38;20.10;42.60
19060;DHT22;9663;48.996;8.334;2023-07-20T03:13:06;20.10;43.20
19060;DHT22;9663;48.996;8.334;2023-07-20T03:15:32;20.10;42.90
19060;DHT22;9663;48.996;8.334;2023-07-20T03:17:58;20.00;42.90
19060;DHT22;9663;48.996;8.334;2023-07-20T03:20:24;20.00;43.00
19060;DHT22;9663;48.996;8.334;2023-07-20T03:22:50;19.90;43.10
19060;DHT22;9663;48.996;8.334;2023-07-20T03:25:15;19.90;43.30
19060;DHT22;9663;48.996;8.334;2023-07-20T03:27:43;19.90;43.50
19060;DHT22;9663;48.996;8.334;2023-07-20T03:30:08;19.80;43.50
19060;DHT22;9663;48.996;8.334;2023-07-20T03:32:35;19.70;43.70
19060;DHT22;9663;48.996;8.334;2023-07-20T03:35:01;19.60;43.70
19060;DHT22;9663;48.996;8.334;2023-07-20T03:37:27;19.60;43.80
19060;DHT22;9663;48.996;8.334;2023-07-20T03:39:53;19.50;43.90
19060;DHT22;9663;48.996;8.334;2023-07-20T03:42:19;19.50;44.10
19060;DHT22;9663;48.996;8.334;2023-07-20T03:44:44;19.40;44.20
19060;DHT22;9663;48.996;8.334;2023-07-20T03:47:10;19.30;44.30
19060;DHT22;9663;48.996;8.334;2023-07-20T03:49:35;19.30;44.50
19060;DHT22;9663;48.996;8.334;2023-07-20T03:52:02;19.30;44.60
19060;DHT22;9663;48.996;8.334;2023-07-20T03:54:30;19.30;44.80
19060;DHT22;9663;48.996;8.334;2023-07-20T03:56:56;19.30;44.80
19060;DHT22;9663;48.996;8.334;2023-07-20T03:59:22;19.30;45.00
19060;DHT22;9663;48.996;8.334;2023-07-20T04:01:47;19.30;45.00
19060;DHT22;9663;48.996;8.334;2023-07-20T04:04:15;19.30;45.10
19060;DHT22;9663;48.996;8.334;2023-07-20T04:06:41;19.30;45.10
19060;DHT22;9663;48.996;8.334;2023-07-20T04:09:10;19.30;45.20
19060;DHT22;9663;48.996;8.334;2023-07-20T04:11:39;19.30;45.30
19060;DHT22;9663;48.996;8.334;2023-07-20T04:14:05;19.30;45.70
19060;DHT22;9663;48.996;8.334;2023-07-20T04:16:31;19.30;45.50
19060;DHT22;9663;48.996;8.334;2023-07-20T04:18:58;19.30;46.20
19060;DHT22;9663;48.996;8.334;2023-07-20T04:21:26;19.30;45.70
19060;DHT22;9663;48.996;8.334;2023-07-20T04:23:52;19.20;45.90
19060;DHT22;9663;48.996;8.334;2023-07-20T04:26:18;19.20;45.80
19060;DHT22;9663;48.996;8.334;2023-07-20T04:28:43;19.20;45.80
19060;DHT22;9663;48.996;8.334;2023-07-20T04:31:13;19.20;46.00
19060;DHT22;9663;48.996;8.334;2023-07-20T04:33:40;19.20;46.50
19060;DHT22;9663;48.996;8.334;2023-07-20T04:36:05;19.20;46.20
19060;DHT22;9663;48.996;8.334;2023-07-20T04:38:33;19.20;46.20
19060;DHT22;9663;48.996;8.334;2023-07-20T04:40:59;19.20;46.40
19060;DHT22;9663;48.996;8.334;2023-07-20T04:43:24;19.30;46.50
19060;DHT22;9663;48.996;8.334;2023-07-20T04:45:51;19.20;46.50
19060;DHT22;9663;48.996;8.334;2023-07-20T04:48:17;19.20;46.60
19060;DHT22;9663;48.996;8.334;2023-07-20T04:50:45;19.30;46.60
19060;DHT22;9663;48.996;8.334;2023-07-20T04:53:14;19.30;46.70
19060;DHT22;9663;48.996;8.334;2023-07-20T04:55:40;19.30;47.00
19060;DHT22;9663;48.996;8.334;2023-07-20T04:58:12;19.30;46.70
19060;DHT22;9663;48.996;8.334;2023-07-20T05:00:38;19.20;46.80
19060;DHT22;9663;48.996;8.334;2023-07-20T05:03:04;19.20;46.90
19060;DHT22;9663;48.996;8.334;2023-07-20T05:05:30;19.20;47.00
19060;DHT22;9663;48.996;8.334;2023-07-20T05:07:57;19.20;47.30
19060;DHT22;9663;48.996;8.334;2023-07-20T05:10:23;19.20;47.10
19060;DHT22;9663;48.996;8.334;2023-07-20T05:12:49;19.30;47.30
19060;DHT22;9663;48.996;8.334;2023-07-20T05:15:15;19.30;47.30
19060;DHT22;9663;48.996;8.334;2023-07-20T05:17:41;19.40;47.50
19060;DHT22;9663;48.996;8.334;2023-07-20T05:20:07;19.50;47.60
19060;DHT22;9663;48.996;8.334;2023-07-20T05:22:35;19.50;47.50
19060;DHT22;9663;48.996;8.334;2023-07-20T05:25:08;19.60;47.50
19060;DHT22;9663;48.996;8.334;2023-07-20T05:27:36;19.70;47.50
19060;DHT22;9663;48.996;8.334;2023-07-20T05:30:04;19.80;47.80
19060;DHT22;9663;48.996;8.334;2023-07-20T05:32:30;19.80;47.70
19060;DHT22;9663;48.996;8.334;2023-07-20T05:34:56;19.90;47.70
19060;DHT22;9663;48.996;8.334;2023-07-20T05:37:22;20.00;47.70
19060;DHT22;9663;48.996;8.334;2023-07-20T05:39:47;20.10;47.50
19060;DHT22;9663;48.996;8.334;2023-07-20T05:42:13;20.10;47.40
19060;DHT22;9663;48.996;8.334;2023-07-20T05:44:40;20.10;47.40
19060;DHT22;9663;48.996;8.334;2023-07-20T05:47:06;20.20;47.40
19060;DHT22;9663;48.996;8.334;2023-07-20T05:49:33;20.30;47.40
19060;DHT22;9663;48.996;8.334;2023-07-20T05:52:00;20.40;47.30
19060;DHT22;9663;48.996;8.334;2023-07-20T05:54:26;20.50;47.30
19060;DHT22;9663;48.996;8.334;2023-07-20T05:56:52;20.60;47.20
19060;DHT22;9663;48.996;8.334;2023-07-20T05:59:19;20.70;47.20
19060;DHT22;9663;48.996;8.334;2023-07-20T06:01:49;20.80;47.20
19060;DHT22;9663;48.996;8.334;2023-07-20T06:04:15;20.90;47.10
19060;DHT22;9663;48.996;8.334;2023-07-20T06:06:41;21.00;47.10
19060;DHT22;9663;48.996;8.334;2023-07-20T06:09:07;21.10;47.10
19060;DHT22;9663;48.996;8.334;2023-07-20T06:11:38;21.20;47.00
19060;DHT22;9663;48.996;8.334;2023-07-20T06:14:04;21.20;46.80
19060;DHT22;9663;48.996;8.334;2023-07-20T06:16:30;21.30;46.70
19060;DHT22;9663;48.996;8.334;2023-07-20T06:18:56;21.40;46.70
19060;DHT22;9663;48.996;8.334;2023-07-20T06:21:22;21.40;46.70
19060;DHT22;9663;48.996;8.334;2023-07-20T06:23:48;21.50;46.70
19060;DHT22;9663;48.996;8.334;2023-07-20T06:26:14;21.50;46.80
19060;DHT22;9663;48.996;8.334;2023-07-20T06:28:39;21.60;46.70
19060;DHT22;9663;48.996;8.334;2023-07-20T06:31:05;21.70;46.70
19060;DHT22;9663;48.996;8.334;2023-07-20T06:33:31;21.70;46.60
19060;DHT22;9663;48.996;8.334;2023-07-20T06:35:57;21.80;46.60
19060;DHT22;9663;48.996;8.334;2023-07-20T06:38:23;21.80;46.60
19060;DHT22;9663;48.996;8.334;2023-07-20T06:40:50;21.90;46.60
19060;DHT22;9663;48.996;8.334;2023-07-20T06:43:16;21.90;46.60
19060;DHT22;9663;48.996;8.334;2023-07-20T06:45:42;22.00;46.60
19060;DHT22;9663;48.996;8.334;2023-07-20T06:48:08;22.10;46.70
19060;DHT22;9663;48.996;8.334;2023-07-20T06:50:34;22.10;46.60
19060;DHT22;9663;48.996;8.334;2023-07-20T06:53:00;22.20;46.60
19060;DHT22;9663;48.996;8.334;2023-07-20T06:55:28;22.20;46.50
19060;DHT22;9663;48.996;8.334;2023-07-20T06:57:54;22.30;46.50
19060;DHT22;9663;48.996;8.334;2023-07-20T07:00:20;22.40;46.50
19060;DHT22;9663;48.996;8.334;2023-07-20T07:02:45;22.40;46.50
19060;DHT22;9663;48.996;8.334;2023-07-20T07:05:11;22.40;46.40
19060;DHT22;9663;48.996;8.334;2023-07-20T07:07:38;22.50;46.50
19060;DHT22;9663;48.996;8.334;2023-07-20T07:10:05;22.50;46.40
19060;DHT22;9663;48.996;8.334;2023-07-20T07:12:31;22.60;46.50
19060;DHT22;9663;48.996;8.334;2023-07-20T07:14:57;22.60;46.50
19060;DHT22;9663;48.996;8.334;2023-07-20T07:17:23;22.70;46.40
19060;DHT22;9663;48.996;8.334;2023-07-20T07:19:50;22.80;46.40
19060;DHT22;9663;48.996;8.334;2023-07-20T07:22:19;22.90;46.30
19060;DHT22;9663;48.996;8.334;2023-07-20T07:24:44;22.90;46.30
19060;DHT22;9663;48.996;8.334;2023-07-20T07:27:10;23.00;46.30
19060;DHT22;9663;48.996;8.334;2023-07-20T07:29:36;23.10;46.90
19060;DHT22;9663;48.996;8.334;2023-07-20T07:32:02;23.10;46.20
19060;DHT22;9663;48.996;8.334;2023-07-20T07:34:29;23.20;46.10
19060;DHT22;9663;48.996;8.334;2023-07-20T07:36:54;23.20;46.00
19060;DHT22;9663;48.996;8.334;2023-07-20T07:39:20;23.30;46.00
19060;DHT22;9663;48.996;8.334;2023-07-20T07:41:46;23.30;45.90
19060;DHT22;9663;48.996;8.334;2023-07-20T07:44:11;23.30;45.90
19060;DHT22;9663;48.996;8.334;2023-07-20T07:46:37;23.40;45.80
19060;DHT22;9663;48.996;8.334;2023-07-20T07:49:03;23.40;45.90
19060;DHT22;9663;48.996;8.334;2023-07-20T07:51:29;23.50;46.00
19060;DHT22;9663;48.996;8.334;2023-07-20T07:53:55;23.60;46.00
19060;DHT22;9663;48.996;8.334;2023-07-20T07:56:20;23.80;46.10
19060;DHT22;9663;48.996;8.334;2023-07-20T07:58:50;24.00;45.90
19060;DHT22;9663;48.996;8.334;2023-07-20T08:01:17;24.10;45.60
19060;DHT22;9663;48.996;8.334;2023-07-20T08:03:44;24.30;45.40
19060;DHT22;9663;48.996;8.334;2023-07-20T08:06:13;24.40;45.20
19060;DHT22;9663;48.996;8.334;2023-07-20T08:08:39;24.60;45.10
19060;DHT22;9663;48.996;8.334;2023-07-20T08:11:05;24.70;45.20
19060;DHT22;9663;48.996;8.334;2023-07-20T08:13:31;24.80;45.00
19060;DHT22;9663;48.996;8.334;2023-07-20T08:15:57;25.00;44.90
19060;DHT22;9663;48.996;8.334;2023-07-20T08:18:24;25.10;44.70
19060;DHT22;9663;48.996;8.334;2023-07-20T08:20:50;25.20;44.70
19060;DHT22;9663;48.996;8.334;2023-07-20T08:23:16;25.40;44.70
19060;DHT22;9663;48.996;8.334;2023-07-20T08:25:41;25.50;44.50
19060;DHT22;9663;48.996;8.334;2023-07-20T08:28:14;25.70;44.30
19060;DHT22;9663;48.996;8.334;2023-07-20T08:30:47;25.80;44.10
19060;DHT22;9663;48.996;8.334;2023-07-20T08:33:15;26.00;43.90
19060;DHT22;9663;48.996;8.334;2023-07-20T08:35:43;26.10;43.70
19060;DHT22;9663;48.996;8.334;2023-07-20T08:38:09;26.20;43.60
19060;DHT22;9663;48.996;8.334;2023-07-20T08:40:45;26.30;43.60
19060;DHT22;9663;48.996;8.334;2023-07-20T08:43:12;26.40;43.50
19060;DHT22;9663;48.996;8.334;2023-07-20T08:45:42;26.60;43.30
19060;DHT22;9663;48.996;8.334;2023-07-20T08:48:11;26.70;43.10
19060;DHT22;9663;48.996;8.334;2023-07-20T08:50:38;26.70;42.60
19060;DHT22;9663;48.996;8.334;2023-07-20T08:53:04;26.70;42.40
19060;DHT22;9663;48.996;8.334;2023-07-20T08:55:31;26.60;42.40
19060;DHT22;9663;48.996;8.334;2023-07-20T08:57:59;26.70;42.40
19060;DHT22;9663;48.996;8.334;2023-07-20T09:00:26;26.60;42.30
19060;DHT22;9663;48.996;8.334;2023-07-20T09:02:54;26.60;42.30
19060;DHT22;9663;48.996;8.334;2023-07-20T09:05:22;26.70;42.40
19060;DHT22;9663;48.996;8.334;2023-07-20T09:07:49;26.80;42.60
19060;DHT22;9663;48.996;8.334;2023-07-20T09:10:15;26.90;42.50
19060;DHT22;9663;48.996;8.334;2023-07-20T09:12:42;27.10;42.20
19060;DHT22;9663;48.996;8.334;2023-07-20T09:15:10;27.10;41.70
19060;DHT22;9663;48.996;8.334;2023-07-20T09:17:36;27.20;41.70
19060;DHT22;9663;48.996;8.334;2023-07-20T09:20:07;27.30;41.80
19060;DHT22;9663;48.996;8.334;2023-07-20T09:22:37;27.50;41.80
19060;DHT22;9663;48.996;8.334;2023-07-20T09:25:13;27.60;41.60
19060;DHT22;9663;48.996;8.334;2023-07-20T09:27:45;27.70;41.10
19060;DHT22;9663;48.996;8.334;2023-07-20T09:30:14;27.70;41.10
19060;DHT22;9663;48.996;8.334;2023-07-20T09:32:46;27.80;40.90
19060;DHT22;9663;48.996;8.334;2023-07-20T09:37:41;27.80;40.30
19060;DHT22;9663;48.996;8.334;2023-07-20T09:40:15;27.70;40.20
19060;DHT22;9663;48.996;8.334;2023-07-20T09:42:42;27.70;40.20
19060;DHT22;9663;48.996;8.334;2023-07-20T09:45:08;27.80;40.50
19060;DHT22;9663;48.996;8.334;2023-07-20T09:47:38;27.80;40.40
19060;DHT22;9663;48.996;8.334;2023-07-20T09:50:05;28.00;40.50
19060;DHT22;9663;48.996;8.334;2023-07-20T09:52:37;28.10;40.50
19060;DHT22;9663;48.996;8.334;2023-07-20T09:55:06;28.20;40.00
19060;DHT22;9663;48.996;8.334;2023-07-20T09:57:34;28.30;39.70
19060;DHT22;9663;48.996;8.334;2023-07-20T10:00:06;28.40;39.40
19060;DHT22;9663;48.996;8.334;2023-07-20T10:02:44;28.40;39.40
19060;DHT22;9663;48.996;8.334;2023-07-20T10:05:14;28.40;38.40
19060;DHT22;9663;48.996;8.334;2023-07-20T10:07:47;28.50;38.90
19060;DHT22;9663;48.996;8.334;2023-07-20T10:10:16;28.70;38.60
19060;DHT22;9663;48.996;8.334;2023-07-20T10:12:47;28.80;38.80
19060;DHT22;9663;48.996;8.334;2023-07-20T10:15:25;28.80;38.40
19060;DHT22;9663;48.996;8.334;2023-07-20T10:18:12;28.80;37.20
19060;DHT22;9663;48.996;8.334;2023-07-20T10:20:44;28.80;37.70
19060;DHT22;9663;48.996;8.334;2023-07-20T10:23:12;28.70;36.80
19060;DHT22;9663;48.996;8.334;2023-07-20T10:25:39;28.70;36.80
19060;DHT22;9663;48.996;8.334;2023-07-20T10:28:08;28.70;37.10
19060;DHT22;9663;48.996;8.334;2023-07-20T10:30:36;28.70;36.70
19060;DHT22;9663;48.996;8.334;2023-07-20T10:33:03;28.70;37.10
19060;DHT22;9663;48.996;8.334;2023-07-20T10:35:31;28.80;37.10
19060;DHT22;9663;48.996;8.334;2023-07-20T10:38:16;28.80;37.30
19060;DHT22;9663;48.996;8.334;2023-07-20T10:40:42;28.90;37.50
19060;DHT22;9663;48.996;8.334;2023-07-20T10:43:09;29.00;37.60
19060;DHT22;9663;48.996;8.334;2023-07-20T10:45:52;29.20;38.30
19060;DHT22;9663;48.996;8.334;2023-07-20T10:48:20;29.30;35.90
19060;DHT22;9663;48.996;8.334;2023-07-20T10:51:12;29.50;35.70
19060;DHT22;9663;48.996;8.334;2023-07-20T10:53:40;29.60;35.00
19060;DHT22;9663;48.996;8.334;2023-07-20T10:56:07;29.70;35.70
19060;DHT22;9663;48.996;8.334;2023-07-20T10:58:36;29.80;35.80
19060;DHT22;9663;48.996;8.334;2023-07-20T11:01:03;29.90;35.30
19060;DHT22;9663;48.996;8.334;2023-07-20T11:03:37;29.90;34.90
19060;DHT22;9663;48.996;8.334;2023-07-20T11:11:33;29.70;34.40
19060;DHT22;9663;48.996;8.334;2023-07-20T11:14:20;29.70;34.70
19060;DHT22;9663;48.996;8.334;2023-07-20T11:16:49;29.80;34.20
19060;DHT22;9663;48.996;8.334;2023-07-20T11:19:26;30.00;34.70
19060;DHT22;9663;48.996;8.334;2023-07-20T11:21:55;30.10;34.50
19060;DHT22;9663;48.996;8.334;2023-07-20T11:24:23;30.10;34.40
19060;DHT22;9663;48.996;8.334;2023-07-20T11:26:51;30.30;34.50
19060;DHT22;9663;48.996;8.334;2023-07-20T11:29:22;30.30;34.10
19060;DHT22;9663;48.996;8.334;2023-07-20T11:31:50;30.40;34.30
19060;DHT22;9663;48.996;8.334;2023-07-20T11:34:18;30.60;34.20
19060;DHT22;9663;48.996;8.334;2023-07-20T11:36:47;30.90;34.30
19060;DHT22;9663;48.996;8.334;2023-07-20T11:39:17;31.30;34.20
19060;DHT22;9663;48.996;8.334;2023-07-20T11:41:53;31.70;34.20
19060;DHT22;9663;48.996;8.334;2023-07-20T11:44:22;32.20;33.70
19060;DHT22;9663;48.996;8.334;2023-07-20T11:47:11;32.70;33.70
19060;DHT22;9663;48.996;8.334;2023-07-20T11:52:10;33.60;33.10
19060;DHT22;9663;48.996;8.334;2023-07-20T11:54:40;34.10;32.50
19060;DHT22;9663;48.996;8.334;2023-07-20T11:57:07;34.60;32.00
19060;DHT22;9663;48.996;8.334;2023-07-20T11:59:53;35.00;31.60
19060;DHT22;9663;48.996;8.334;2023-07-20T12:02:22;35.30;29.70
19060;DHT22;9663;48.996;8.334;2023-07-20T12:04:51;35.20;29.80
19060;DHT22;9663;48.996;8.334;2023-07-20T12:07:18;34.90;29.90
19060;DHT22;9663;48.996;8.334;2023-07-20T12:09:45;34.90;30.10
19060;DHT22;9663;48.996;8.334;2023-07-20T12:12:28;35.10;30.50
19060;DHT22;9663;48.996;8.334;2023-07-20T12:15:32;35.30;29.40
19060;DHT22;9663;48.996;8.334;2023-07-20T12:18:01;35.30;28.10
19060;DHT22;9663;48.996;8.334;2023-07-20T12:20:35;35.20;28.90
19060;DHT22;9663;48.996;8.334;2023-07-20T12:23:09;35.20;29.20
19060;DHT22;9663;48.996;8.334;2023-07-20T12:25:39;35.60;28.80
19060;DHT22;9663;48.996;8.334;2023-07-20T12:28:13;36.00;29.50
19060;DHT22;9663;48.996;8.334;2023-07-20T12:30:47;36.50;29.50
19060;DHT22;9663;48.996;8.334;2023-07-20T12:33:21;37.00;29.10
19060;DHT22;9663;48.996;8.334;2023-07-20T12:35:48;37.30;28.70
19060;DHT22;9663;48.996;8.334;2023-07-20T12:38:15;37.50;28.40
19060;DHT22;9663;48.996;8.334;2023-07-20T12:40:42;37.80;28.40
19060;DHT22;9663;48.996;8.334;2023-07-20T12:43:08;38.10;28.20
19060;DHT22;9663;48.996;8.334;2023-07-20T12:45:33;38.50;28.10
19060;DHT22;9663;48.996;8.334;2023-07-20T12:47:59;38.80;27.80
19060;DHT22;9663;48.996;8.334;2023-07-20T12:50:27;39.20;27.40
19060;DHT22;9663;48.996;8.334;2023-07-20T12:52:53;39.60;26.80
19060;DHT22;9663;48.996;8.334;2023-07-20T12:55:18;39.80;26.10
19060;DHT22;9663;48.996;8.334;2023-07-20T12:57:46;40.00;25.80
19060;DHT22;9663;48.996;8.334;2023-07-20T13:00:15;40.10;25.50
19060;DHT22;9663;48.996;8.334;2023-07-20T13:02:41;40.10;25.30
19060;DHT22;9663;48.996;8.334;2023-07-20T13:05:09;40.30;25.40
19060;DHT22;9663;48.996;8.334;2023-07-20T13:07:37;40.30;25.10
19060;DHT22;9663;48.996;8.334;2023-07-20T13:10:05;40.30;24.60
19060;DHT22;9663;48.996;8.334;2023-07-20T13:12:32;40.30;24.50
19060;DHT22;9663;48.996;8.334;2023-07-20T13:15:01;40.10;24.50
19060;DHT22;9663;48.996;8.334;2023-07-20T13:17:34;40.00;24.30
19060;DHT22;9663;48.996;8.334;2023-07-20T13:20:02;39.90;24.10
19060;DHT22;9663;48.996;8.334;2023-07-20T13:22:30;39.80;24.10
19060;DHT22;9663;48.996;8.334;2023-07-20T13:24:56;39.70;23.90
19060;DHT22;9663;48.996;8.334;2023-07-20T13:27:22;39.70;23.70
19060;DHT22;9663;48.996;8.334;2023-07-20T13:29:47;39.60;23.60
19060;DHT22;9663;48.996;8.334;2023-07-20T13:32:14;39.40;23.50
19060;DHT22;9663;48.996;8.334;2023-07-20T13:34:40;39.20;23.20
19060;DHT22;9663;48.996;8.334;2023-07-20T13:37:07;39.00;23.60
19060;DHT22;9663;48.996;8.334;2023-07-20T13:39:33;39.00;23.50
19060;DHT22;9663;48.996;8.334;2023-07-20T13:41:59;39.10;23.80
19060;DHT22;9663;48.996;8.334;2023-07-20T13:44:26;39.20;23.60
19060;DHT22;9663;48.996;8.334;2023-07-20T13:46:52;39.30;23.70
19060;DHT22;9663;48.996;8.334;2023-07-20T13:49:18;39.60;23.50
19060;DHT22;9663;48.996;8.334;2023-07-20T13:51:44;39.90;23.60
19060;DHT22;9663;48.996;8.334;2023-07-20T13:54:10;40.10;23.00
19060;DHT22;9663;48.996;8.334;2023-07-20T13:56:37;40.10;22.30
19060;DHT22;9663;48.996;8.334;2023-07-20T13:59:03;39.70;21.90
19060;DHT22;9663;48.996;8.334;2023-07-20T14:01:28;39.10;21.80
19060;DHT22;9663;48.996;8.334;2023-07-20T14:03:55;38.60;22.30
19060;DHT22;9663;48.996;8.334;2023-07-20T14:06:21;38.30;22.50
19060;DHT22;9663;48.996;8.334;2023-07-20T14:08:47;37.90;22.50
19060;DHT22;9663;48.996;8.334;2023-07-20T14:11:14;37.60;22.40
19060;DHT22;9663;48.996;8.334;2023-07-20T14:13:40;37.40;22.50
19060;DHT22;9663;48.996;8.334;2023-07-20T14:16:06;37.10;22.40
19060;DHT22;9663;48.996;8.334;2023-07-20T14:18:31;36.90;22.40
19060;DHT22;9663;48.996;8.334;2023-07-20T14:20:57;36.60;22.40
19060;DHT22;9663;48.996;8.334;2023-07-20T14:23:23;36.50;22.60
19060;DHT22;9663;48.996;8.334;2023-07-20T14:25:49;36.40;22.60
19060;DHT22;9663;48.996;8.334;2023-07-20T14:28:14;36.30;22.60
19060;DHT22;9663;48.996;8.334;2023-07-20T14:30:41;36.40;22.70
19060;DHT22;9663;48.996;8.334;2023-07-20T14:33:06;36.60;22.90
19060;DHT22;9663;48.996;8.334;2023-07-20T14:35:33;37.00;22.70
19060;DHT22;9663;48.996;8.334;2023-07-20T14:38:00;37.30;22.60
19060;DHT22;9663;48.996;8.334;2023-07-20T14:40:26;37.70;23.00
19060;DHT22;9663;48.996;8.334;2023-07-20T14:42:52;38.10;22.80
19060;DHT22;9663;48.996;8.334;2023-07-20T14:45:18;38.50;22.60
19060;DHT22;9663;48.996;8.334;2023-07-20T14:47:44;38.80;22.50
19060;DHT22;9663;48.996;8.334;2023-07-20T14:50:11;39.00;22.30
19060;DHT22;9663;48.996;8.334;2023-07-20T14:52:37;39.20;22.20
19060;DHT22;9663;48.996;8.334;2023-07-20T14:55:03;39.50;21.90
19060;DHT22;9663;48.996;8.334;2023-07-20T14:57:29;39.70;21.50
19060;DHT22;9663;48.996;8.334;2023-07-20T14:59:55;39.80;21.40
19060;DHT22;9663;48.996;8.334;2023-07-20T15:02:21;40.00;21.20
19060;DHT22;9663;48.996;8.334;2023-07-20T15:04:48;40.10;21.00
19060;DHT22;9663;48.996;8.334;2023-07-20T15:07:19;40.30;20.60
19060;DHT22;9663;48.996;8.334;2023-07-20T15:09:46;40.40;20.40
19060;DHT22;9663;48.996;8.334;2023-07-20T15:12:12;40.50;20.50
19060;DHT22;9663;48.996;8.334;2023-07-20T15:14:40;40.50;20.40
19060;DHT22;9663;48.996;8.334;2023-07-20T15:17:07;40.60;20.50
19060;DHT22;9663;48.996;8.334;2023-07-20T15:19:33;40.80;20.10
19060;DHT22;9663;48.996;8.334;2023-07-20T15:22:00;41.00;19.80
19060;DHT22;9663;48.996;8.334;2023-07-20T15:24:26;41.00;20.00
19060;DHT22;9663;48.996;8.334;2023-07-20T15:26:51;41.20;20.00
19060;DHT22;9663;48.996;8.334;2023-07-20T15:29:17;41.50;20.00
19060;DHT22;9663;48.996;8.334;2023-07-20T15:31:43;41.80;19.90
19060;DHT22;9663;48.996;8.334;2023-07-20T15:34:08;42.10;19.70
19060;DHT22;9663;48.996;8.334;2023-07-20T15:36:38;42.30;19.60
19060;DHT22;9663;48.996;8.334;2023-07-20T15:39:04;42.50;19.30
19060;DHT22;9663;48.996;8.334;2023-07-20T15:41:31;42.70;19.00
19060;DHT22;9663;48.996;8.334;2023-07-20T15:43:56;42.70;18.60
19060;DHT22;9663;48.996;8.334;2023-07-20T15:48:47;42.30;18.30
19060;DHT22;9663;48.996;8.334;2023-07-20T15:51:13;42.10;18.40
19060;DHT22;9663;48.996;8.334;2023-07-20T15:53:39;42.00;18.60
19060;DHT22;9663;48.996;8.334;2023-07-20T15:56:05;41.80;18.50
19060;DHT22;9663;48.996;8.334;2023-07-20T15:58:32;41.70;18.60
19060;DHT22;9663;48.996;8.334;2023-07-20T16:00:58;41.70;18.70
19060;DHT22;9663;48.996;8.334;2023-07-20T16:03:24;41.70;18.40